• Join FlightAware (Why Join?)
  • Login
  • US Flag 
02:58AM EDT


 

Airport Tracker/Info


-or-


 

Live Flight TrackerFlight Track Log ✈ N988LL ✈ 11-May-2013 ✈ KMTH - KOPF

Flight Track Log - Related Links

Times and Time Zones

All times are in EDT time to prevent confusion due to time zone crossing. See the N988LL flight status page for this flight to view local times or setup timezone preferences in your user account.

Time Position Orientation Groundspeed Altitude Reporting Facility
EDT Latitude Longitude Course Direction KTS MPH feet Rate Location/Type
04:03PM 24.7750 -80.9186 90° East 234 269 2,900  Level Miami Center
04:04PM 24.7864 -80.8822 71° East 182 209 3,000  Climbing Miami Center
04:05PM 24.8000 -80.8417 70° East 141 162 3,000 180 Level Miami Center
04:06PM 24.8236 -80.8172 43° Northeast 127 146 3,400 540 Climbing Miami Center
04:07PM 24.8572 -80.8158 North 106 122 4,100 600 Climbing Miami Center
04:08PM 24.8289 -80.8203 58° Northeast  Level FlightAware Approximate
04:08PM 24.8925 -80.8217 351° North 105 121 4,600  Level Miami Center
04:09PM 24.8500 -80.7747 90° East  Level FlightAware Approximate
04:09PM 24.9217 -80.8225 359° North 110 127 5,100  Level Miami Center
04:10PM 24.9550 -80.8236 358° North 110 127 5,500 420 Climbing Miami Center
04:11PM 24.9864 -80.8247 358° North 110 127 6,000 420 Climbing Miami Center
04:12PM 25.0197 -80.8258 358° North 110 127 6,400 360 Climbing Miami Center
04:13PM 25.0533 -80.8269 358° North 110 127 6,800 300 Climbing Miami Center
04:14PM 25.0886 -80.8281 358° North 117 135 7,000 60 Climbing Miami Center
04:15PM 25.1306 -80.8294 358° North 128 147 7,000  Level Miami Center
04:16PM 25.1700 -80.8306 359° North 139 160 7,000 -60 Level Miami Center
04:22PM 25.4070 -80.8330 359° North 149 171 6,800 -120 Descending FlightAware
04:23PM 25.4290 -80.8340 358° North 160 184 6,600 -480 Descending FlightAware
04:23PM 25.4470 -80.8340 360° North 160 184 6,400 -480 Descending FlightAware
04:24PM 25.4680 -80.8350 358° North 162 186 6,200 -360 Descending FlightAware
04:24PM 25.4970 -80.8360 358° North 160 184 6,000 -480 Descending FlightAware
04:24PM 25.5050 -80.8360 360° North 146 168 5,800 -720 Descending FlightAware
04:25PM 25.5310 -80.8360 360° North 147 169 5,500 -540 Descending FlightAware
04:25PM 25.5470 -80.8370 357° North 147 169 5,300 -420 Descending FlightAware
04:26PM 25.5610 -80.8370 360° North 147 169 5,200 -540 Descending FlightAware
04:26PM 25.5740 -80.8380 356° North 148 170 5,000 -300 Descending FlightAware
04:26PM 25.5910 -80.8380 360° North 148 170 5,000 -660 Level FlightAware
04:28PM 25.6210 -80.7550 68° East 155 178 3,700 -720 Descending FlightAware
04:29PM 25.6110 -80.7400 126° Southeast 147 169 3,500 -600 Descending FlightAware
04:29PM 25.5980 -80.7530 222° Southwest 152 175 3,200 -660 Descending FlightAware
04:29PM 25.6130 -80.7670 320° Northwest 150 173 2,900 -420 Descending FlightAware
04:30PM 25.6340 -80.7590 19° North 156 180 2,800 -420 Descending FlightAware
04:32PM 25.6920 -80.7140 35° Northeast 1,900 -480 Descending FlightAware
04:32PM 25.7100 -80.7020 31° Northeast 149 171 1,900  Level FlightAware
04:32PM 25.7240 -80.6930 30° Northeast 154 177 1,900  Level FlightAware
04:33PM 25.7440 -80.6800 30° Northeast 154 177 1,900  Level FlightAware
04:34PM 25.7630 -80.6650 35° Northeast 147 169 1,900  Level FlightAware
04:34PM 25.7880 -80.6410 41° Northeast 148 170 1,900  Level FlightAware
04:35PM 25.7970 -80.6290 50° Northeast 146 168 1,900  Level FlightAware
04:35PM 25.7990 -80.6250 61° Northeast 146 168 1,900  Level FlightAware
04:35PM 25.8110 -80.6080 52° Northeast 148 170 1,900  Level FlightAware
04:36PM 25.8180 -80.5970 55° Northeast 147 169 1,900  Level FlightAware
04:36PM 25.8310 -80.5820 46° Northeast 147 169 1,900  Level FlightAware
04:36PM 25.8430 -80.5680 46° Northeast 147 169 1,900 -480 Level FlightAware
04:37PM 25.8610 -80.5460 48° Northeast 153 176 1,500 -480 Descending FlightAware
04:37PM 25.8710 -80.5350 45° Northeast 147 169 1,500  Level FlightAware
04:38PM 25.8820 -80.5220 47° Northeast 143 165 1,500  Level FlightAware
04:38PM 25.8890 -80.5140 46° Northeast 140 161 1,500  Level FlightAware
04:38PM 25.8960 -80.5060 46° Northeast 131 151 1,500  Level FlightAware
04:39PM 25.9030 -80.4870 68° East 128 147 1,500  Level FlightAware
04:39PM 25.9030 -80.4800 90° East 128 147 1,500  Level FlightAware
04:40PM 25.9040 -80.4530 88° East 125 144 1,500  Level FlightAware
04:40PM 25.9060 -80.4270 85° East 124 143 1,500  Level FlightAware
04:41PM 25.9070 -80.4080 87° East 116 133 1,500  Level FlightAware
04:41PM 25.9070 -80.3930 90° East 116 133 1,500 120 Level FlightAware
04:42PM 25.9080 -80.3790 85° East 105 121 1,600 -300 Climbing FlightAware
04:42PM 25.9090 -80.3670 85° East 112 129 1,300 -900 Descending FlightAware
04:42PM 25.9090 -80.3590 90° East 98 113 1,100 -540 Descending FlightAware
04:43PM 25.9100 -80.3450 85° East 99 114 900 -360 Descending FlightAware
04:43PM 25.9130 -80.3320 76° East 108 124 800 -240 Descending FlightAware
04:43PM 25.9210 -80.3210 51° Northeast 97 112 700 -300 Descending FlightAware
04:44PM 25.9230 -80.3150 70° East 87 100 600 -540 Descending FlightAware
04:44PM 25.9190 -80.3030 110° East 79 91 300 -600 Descending FlightAware
04:45PM 25.9140 -80.2950 125° Southeast 68 78 100 -480 Descending FlightAware
04:45PM 25.9090 -80.2860 122° Southeast 69 79 -240 Descending FlightAware
04:46PM 25.9060 -80.2800 119° Southeast 35 40  Level FlightAware